Terminal Aerodrome Forecast
Issued by NWS Binghamton, NY

Home | Current Version | Previous Version | Text Only | Print | Product List | Glossary On
Versions: 1 2 3 4 5 6 7 8 9 10 11 12 13 14 15 16 17 18 19 20 21
000
FTUS41 KBGM 190800 AAA
TAFSYR
TAF AMD
KSYR 190856Z 1909/2006 30010KT P6SM SCT012 OVC020
      TEMPO 1909/1912 -FZDZSN OVC012
     FM191200 30010KT P6SM OVC020
      TEMPO 1912/1914 -FZDZSN
     FM191500 32008KT P6SM OVC020
     FM192300 32005KT P6SM BKN015=

USA.gov is the U.S. government's official web portal to all federal, state and local government web resources and services.